sensor_id;sensor_type;location;lat;lon;timestamp;P1;durP1;ratioP1;P2;durP2;ratioP2
39698;SDS011;25372;50.582;12.250;2022-10-31T08:30:20;5.85;;;3.45;;
39698;SDS011;25372;50.582;12.250;2022-10-31T08:41:02;12.00;;;3.25;;
39698;SDS011;25372;50.582;12.250;2022-10-31T08:51:24;10.00;;;3.72;;
39698;SDS011;25372;50.582;12.250;2022-10-31T09:01:48;5.88;;;3.85;;
39698;SDS011;25372;50.582;12.250;2022-10-31T09:12:12;4.80;;;2.63;;
39698;SDS011;25372;50.582;12.250;2022-10-31T09:23:01;6.25;;;3.17;;
39698;SDS011;25372;50.582;12.250;2022-10-31T09:33:27;7.70;;;2.75;;
39698;SDS011;25372;50.582;12.250;2022-10-31T09:44:11;2.45;;;2.17;;
39698;SDS011;25372;50.582;12.250;2022-10-31T09:54:42;5.97;;;2.25;;
39698;SDS011;25372;50.582;12.250;2022-10-31T10:05:09;4.38;;;2.70;;
39698;SDS011;25372;50.582;12.250;2022-10-31T10:15:39;4.68;;;2.13;;
39698;SDS011;25372;50.582;12.250;2022-10-31T10:26:14;5.97;;;2.65;;
39698;SDS011;25372;50.582;12.250;2022-10-31T10:36:39;8.25;;;2.67;;
39698;SDS011;25372;50.582;12.250;2022-10-31T10:47:04;4.47;;;2.42;;
39698;SDS011;25372;50.582;12.250;2022-10-31T10:57:48;3.78;;;2.40;;
39698;SDS011;25372;50.582;12.250;2022-10-31T11:08:23;3.33;;;2.13;;
39698;SDS011;25372;50.582;12.250;2022-10-31T11:18:46;7.55;;;3.20;;
39698;SDS011;25372;50.582;12.250;2022-10-31T11:29:12;5.53;;;2.80;;
39698;SDS011;25372;50.582;12.250;2022-10-31T11:39:38;4.18;;;2.00;;
39698;SDS011;25372;50.582;12.250;2022-10-31T11:50:02;4.55;;;2.47;;
39698;SDS011;25372;50.582;12.250;2022-10-31T12:00:33;5.45;;;2.45;;
39698;SDS011;25372;50.582;12.250;2022-10-31T12:10:58;5.82;;;2.95;;
39698;SDS011;25372;50.582;12.250;2022-10-31T12:21:32;5.70;;;2.35;;
39698;SDS011;25372;50.582;12.250;2022-10-31T12:32:11;8.15;;;2.42;;
39698;SDS011;25372;50.582;12.250;2022-10-31T12:42:46;2.33;;;1.80;;
39698;SDS011;25372;50.582;12.250;2022-10-31T13:03:48;3.13;;;2.22;;
39698;SDS011;25372;50.582;12.250;2022-10-31T13:14:19;4.53;;;2.58;;
39698;SDS011;25372;50.582;12.250;2022-10-31T13:24:50;1.80;;;1.48;;
39698;SDS011;25372;50.582;12.250;2022-10-31T13:35:18;6.47;;;2.90;;
39698;SDS011;25372;50.582;12.250;2022-10-31T13:45:49;5.78;;;2.75;;
39698;SDS011;25372;50.582;12.250;2022-10-31T13:56:13;2.80;;;2.03;;
39698;SDS011;25372;50.582;12.250;2022-10-31T14:06:47;3.15;;;1.88;;
39698;SDS011;25372;50.582;12.250;2022-10-31T14:17:16;5.50;;;2.50;;
39698;SDS011;25372;50.582;12.250;2022-10-31T14:27:46;2.72;;;2.13;;
39698;SDS011;25372;50.582;12.250;2022-10-31T14:38:11;2.45;;;2.15;;
39698;SDS011;25372;50.582;12.250;2022-10-31T14:48:53;4.78;;;2.83;;
39698;SDS011;25372;50.582;12.250;2022-10-31T14:59:28;6.30;;;2.38;;
39698;SDS011;25372;50.582;12.250;2022-10-31T15:09:56;4.10;;;2.07;;
39698;SDS011;25372;50.582;12.250;2022-10-31T15:20:18;5.43;;;3.10;;
39698;SDS011;25372;50.582;12.250;2022-10-31T15:30:50;5.93;;;3.10;;
39698;SDS011;25372;50.582;12.250;2022-10-31T15:41:21;4.75;;;2.47;;
39698;SDS011;25372;50.582;12.250;2022-10-31T15:51:50;4.88;;;2.67;;
39698;SDS011;25372;50.582;12.250;2022-10-31T16:02:13;5.55;;;3.17;;
39698;SDS011;25372;50.582;12.250;2022-10-31T16:23:14;17.77;;;9.55;;
39698;SDS011;25372;50.582;12.250;2022-10-31T16:33:37;6.23;;;4.10;;
39698;SDS011;25372;50.582;12.250;2022-10-31T16:44:01;5.30;;;2.88;;
39698;SDS011;25372;50.582;12.250;2022-10-31T16:54:24;7.70;;;3.15;;
39698;SDS011;25372;50.582;12.250;2022-10-31T17:04:46;9.45;;;4.22;;
39698;SDS011;25372;50.582;12.250;2022-10-31T17:15:09;7.60;;;3.60;;
39698;SDS011;25372;50.582;12.250;2022-10-31T17:25:38;8.57;;;4.95;;
39698;SDS011;25372;50.582;12.250;2022-10-31T17:36:01;7.70;;;3.70;;
39698;SDS011;25372;50.582;12.250;2022-10-31T17:46:24;7.32;;;4.32;;
39698;SDS011;25372;50.582;12.250;2022-10-31T17:56:46;13.30;;;5.60;;
39698;SDS011;25372;50.582;12.250;2022-10-31T18:07:08;8.25;;;5.85;;
39698;SDS011;25372;50.582;12.250;2022-10-31T18:17:29;7.47;;;4.32;;
39698;SDS011;25372;50.582;12.250;2022-10-31T18:27:51;10.07;;;5.50;;
39698;SDS011;25372;50.582;12.250;2022-10-31T18:38:12;17.33;;;7.43;;
39698;SDS011;25372;50.582;12.250;2022-10-31T18:48:34;10.52;;;5.30;;
39698;SDS011;25372;50.582;12.250;2022-10-31T18:58:57;6.80;;;4.28;;
39698;SDS011;25372;50.582;12.250;2022-10-31T19:09:20;6.60;;;3.88;;
39698;SDS011;25372;50.582;12.250;2022-10-31T19:19:42;9.98;;;5.28;;
39698;SDS011;25372;50.582;12.250;2022-10-31T19:30:05;10.00;;;5.82;;
39698;SDS011;25372;50.582;12.250;2022-10-31T19:40:27;9.38;;;4.82;;
39698;SDS011;25372;50.582;12.250;2022-10-31T19:50:49;8.38;;;4.75;;
39698;SDS011;25372;50.582;12.250;2022-10-31T20:01:12;8.15;;;4.35;;
39698;SDS011;25372;50.582;12.250;2022-10-31T20:11:36;5.80;;;4.63;;
39698;SDS011;25372;50.582;12.250;2022-10-31T20:21:57;9.23;;;4.82;;
39698;SDS011;25372;50.582;12.250;2022-10-31T20:32:19;6.15;;;4.05;;
39698;SDS011;25372;50.582;12.250;2022-10-31T20:42:40;7.32;;;4.55;;
39698;SDS011;25372;50.582;12.250;2022-10-31T20:53:02;8.77;;;4.63;;
39698;SDS011;25372;50.582;12.250;2022-10-31T21:03:24;6.18;;;4.03;;
39698;SDS011;25372;50.582;12.250;2022-10-31T21:13:47;8.50;;;4.97;;
39698;SDS011;25372;50.582;12.250;2022-10-31T21:24:10;11.18;;;4.90;;
39698;SDS011;25372;50.582;12.250;2022-10-31T21:34:34;9.00;;;4.18;;
39698;SDS011;25372;50.582;12.250;2022-10-31T21:44:55;8.32;;;4.20;;
39698;SDS011;25372;50.582;12.250;2022-10-31T21:55:17;8.25;;;5.10;;
39698;SDS011;25372;50.582;12.250;2022-10-31T22:05:38;8.80;;;4.47;;
39698;SDS011;25372;50.582;12.250;2022-10-31T22:16:01;8.27;;;4.80;;
39698;SDS011;25372;50.582;12.250;2022-10-31T22:26:22;13.05;;;5.05;;
39698;SDS011;25372;50.582;12.250;2022-10-31T22:36:45;11.90;;;5.05;;
39698;SDS011;25372;50.582;12.250;2022-10-31T22:47:07;13.48;;;6.20;;
39698;SDS011;25372;50.582;12.250;2022-10-31T22:57:29;12.93;;;6.13;;
39698;SDS011;25372;50.582;12.250;2022-10-31T23:07:50;9.63;;;5.93;;
39698;SDS011;25372;50.582;12.250;2022-10-31T23:18:13;12.05;;;6.28;;
39698;SDS011;25372;50.582;12.250;2022-10-31T23:28:33;17.08;;;7.07;;
39698;SDS011;25372;50.582;12.250;2022-10-31T23:38:56;9.93;;;5.97;;
39698;SDS011;25372;50.582;12.250;2022-10-31T23:49:17;9.05;;;5.90;;
39698;SDS011;25372;50.582;12.250;2022-10-31T23:59:39;8.60;;;5.10;;
